Time;durP1;ratioP1;P1;durP2;ratioP2;P2;SDS_P1;SDS_P2;PMS_P1;PMS_P2;Temp;Humidity;BMP_temperature;BMP_pressure;BME280_temperature;BME280_humidity;BME280_pressure;Samples;Min_cycle;Max_cycle;Signal;HPM_P1;HPM_P2
2023/02/26 00:01:16;;;;;;;0.10;0.10;;;0.80;99.90;;;;;;5020858;28;20936;-80
2023/02/26 00:03:41;;;;;;;0.10;0.10;;;0.80;99.90;;;;;;5018598;28;20209;-80
2023/02/26 00:06:08;;;;;;;0.10;0.10;;;0.80;99.90;;;;;;5022012;28;20473;-80
2023/02/26 00:08:34;;;;;;;0.10;0.10;;;0.70;99.90;;;;;;5022977;28;20719;-80
2023/02/26 00:11:00;;;;;;;0.00;0.00;;;0.80;99.90;;;;;;5020521;28;20670;-81
2023/02/26 00:13:27;;;;;;;0.10;0.10;;;0.80;99.90;;;;;;5016903;28;20673;-80
2023/02/26 00:15:57;;;;;;;0.10;0.10;;;0.80;99.90;;;;;;5022586;28;20731;-80
2023/02/26 00:18:23;;;;;;;0.10;0.10;;;1.00;99.90;;;;;;5014727;28;20183;-80
2023/02/26 00:20:49;;;;;;;0.10;0.10;;;1.20;99.90;;;;;;5023241;28;20269;-80
2023/02/26 00:23:16;;;;;;;0.10;0.10;;;1.20;99.90;;;;;;5021737;28;20189;-80
2023/02/26 00:25:41;;;;;;;0.10;0.10;;;1.40;99.90;;;;;;5019898;28;20200;-80
2023/02/26 00:28:08;;;;;;;0.10;0.10;;;1.50;99.90;;;;;;5021191;28;20197;-81
2023/02/26 00:30:34;;;;;;;0.00;0.00;;;1.50;99.90;;;;;;5017086;28;20193;-81
2023/02/26 00:33:00;;;;;;;0.10;0.10;;;1.60;99.90;;;;;;5021082;28;20187;-81
2023/02/26 00:35:26;;;;;;;0.00;0.00;;;1.80;99.90;;;;;;5022424;28;20213;-79
2023/02/26 00:37:54;;;;;;;0.10;0.10;;;1.80;99.90;;;;;;5017334;28;20188;-79
2023/02/26 00:40:26;;;;;;;0.00;0.00;;;1.80;99.90;;;;;;5020843;28;20288;-80
2023/02/26 00:42:52;;;;;;;0.10;0.10;;;1.80;99.90;;;;;;5020108;28;20787;-79
2023/02/26 00:45:18;;;;;;;0.00;0.00;;;1.90;99.90;;;;;;5019947;28;20204;-81
2023/02/26 00:48:08;;;;;;;0.10;0.10;;;2.00;99.90;;;;;;5016038;28;20197;-80
2023/02/26 00:50:34;;;;;;;0.10;0.10;;;1.80;99.90;;;;;;5025048;28;20188;-80
2023/02/26 00:53:13;;;;;;;0.10;0.10;;;1.70;99.90;;;;;;5023789;28;20187;-80
2023/02/26 00:55:39;;;;;;;0.10;0.10;;;1.70;99.90;;;;;;5040523;28;20588;-81
2023/02/26 00:58:04;;;;;;;0.10;0.10;;;1.50;99.90;;;;;;5022303;28;20179;-81
2023/02/26 01:00:30;;;;;;;0.00;0.00;;;1.40;99.90;;;;;;5024171;28;20803;-80
2023/02/26 01:02:56;;;;;;;0.00;0.00;;;1.50;99.90;;;;;;5023863;28;20178;-80
2023/02/26 01:05:22;;;;;;;0.10;0.10;;;1.60;99.90;;;;;;5018405;28;20197;-80
2023/02/26 01:08:16;;;;;;;0.03;0.03;;;1.60;99.90;;;;;;5022104;28;20177;-81
2023/02/26 01:10:42;;;;;;;0.03;0.03;;;1.60;99.90;;;;;;5024568;28;20188;-79
2023/02/26 01:13:08;;;;;;;0.10;0.10;;;1.40;99.90;;;;;;5018117;28;20564;-80
2023/02/26 01:15:34;;;;;;;0.10;0.10;;;1.30;99.90;;;;;;5025512;28;20208;-80
2023/02/26 01:18:12;;;;;;;0.10;0.10;;;1.50;99.90;;;;;;5030941;28;20216;-80
2023/02/26 01:20:53;;;;;;;0.00;0.00;;;1.50;99.90;;;;;;5029086;28;20205;-80
2023/02/26 01:23:24;;;;;;;0.10;0.10;;;1.50;99.90;;;;;;5032282;28;20184;-79
2023/02/26 01:25:57;;;;;;;0.10;0.10;;;1.60;99.90;;;;;;5030543;28;22489;-80
2023/02/26 01:28:23;;;;;;;0.00;0.00;;;1.70;99.90;;;;;;5033685;28;20195;-80
2023/02/26 01:30:56;;;;;;;0.10;0.10;;;1.60;99.90;;;;;;5028814;28;20364;-79
2023/02/26 01:33:41;;;;;;;0.10;0.10;;;1.40;99.90;;;;;;5028280;28;20215;-79
2023/02/26 01:36:09;;;;;;;0.07;0.07;;;1.40;99.90;;;;;;5029368;28;20190;-79
2023/02/26 01:38:56;;;;;;;0.10;0.10;;;1.50;99.90;;;;;;5028648;28;20191;-80
2023/02/26 01:41:30;;;;;;;0.00;0.00;;;1.50;99.90;;;;;;5026207;28;20188;-79
2023/02/26 01:44:21;;;;;;;0.10;0.10;;;1.40;99.90;;;;;;5028116;28;20222;-80
2023/02/26 01:47:08;;;;;;;0.00;0.00;;;1.40;99.90;;;;;;5024511;28;20186;-80
2023/02/26 01:49:34;;;;;;;0.10;0.10;;;1.40;99.90;;;;;;5026177;28;20213;-79
2023/02/26 01:52:35;;;;;;;0.00;0.00;;;1.20;99.90;;;;;;5023365;28;20195;-80
2023/02/26 01:55:00;;;;;;;0.10;0.10;;;1.30;99.90;;;;;;5022510;28;20676;-80
2023/02/26 01:57:26;;;;;;;0.10;0.10;;;1.20;99.90;;;;;;5024166;28;20252;-81
2023/02/26 01:59:53;;;;;;;0.00;0.00;;;1.20;99.90;;;;;;5022070;28;20209;-80
2023/02/26 02:02:21;;;;;;;0.10;0.10;;;1.10;99.90;;;;;;5024337;28;20195;-80
2023/02/26 02:04:48;;;;;;;0.10;0.10;;;1.10;99.90;;;;;;5022865;28;20238;-78
2023/02/26 02:07:15;;;;;;;0.10;0.10;;;1.10;99.90;;;;;;5020985;28;20193;-80
2023/02/26 02:09:41;;;;;;;0.00;0.00;;;1.20;99.90;;;;;;5015742;28;20684;-80
2023/02/26 02:12:28;;;;;;;0.10;0.10;;;1.20;99.90;;;;;;5023196;28;20213;-80
2023/02/26 02:15:08;;;;;;;0.10;0.10;;;1.10;99.90;;;;;;5017268;28;20212;-80
2023/02/26 02:18:01;;;;;;;0.10;0.10;;;1.00;99.90;;;;;;5019744;28;20184;-80
2023/02/26 02:20:36;;;;;;;0.00;0.00;;;0.90;99.90;;;;;;5023848;28;20610;-80
2023/02/26 02:23:08;;;;;;;0.10;0.10;;;0.80;99.90;;;;;;5019013;28;20200;-80
2023/02/26 02:25:52;;;;;;;0.10;0.10;;;0.80;99.90;;;;;;5016326;28;20611;-80
2023/02/26 02:28:53;;;;;;;0.10;0.10;;;0.70;99.90;;;;;;5019646;28;20179;-80
2023/02/26 02:31:27;;;;;;;0.10;0.10;;;0.70;99.90;;;;;;5022140;28;20300;-80
2023/02/26 02:34:16;;;;;;;0.10;0.10;;;0.70;99.90;;;;;;5023253;28;20618;-80
2023/02/26 02:37:00;;;;;;;0.10;0.10;;;0.70;99.90;;;;;;5020954;28;20191;-80
2023/02/26 02:39:33;;;;;;;0.07;0.07;;;0.50;99.90;;;;;;5022715;28;20215;-80
2023/02/26 02:42:25;;;;;;;0.10;0.10;;;0.50;99.90;;;;;;5021362;28;20187;-80
2023/02/26 02:44:57;;;;;;;0.10;0.10;;;0.40;99.90;;;;;;5021500;28;20248;-81
2023/02/26 02:47:25;;;;;;;0.10;0.10;;;0.40;99.90;;;;;;5020351;28;20176;-80
2023/02/26 02:50:04;;;;;;;0.10;0.10;;;0.30;99.90;;;;;;5021833;28;20183;-80
2023/02/26 02:52:40;;;;;;;0.10;0.10;;;0.30;99.90;;;;;;5021769;28;20255;-83
2023/02/26 02:55:24;;;;;;;0.10;0.10;;;0.30;99.90;;;;;;5022803;28;21313;-80
2023/02/26 02:58:03;;;;;;;0.10;0.10;;;0.20;99.90;;;;;;5021535;28;20652;-80
2023/02/26 03:00:32;;;;;;;0.10;0.10;;;0.20;99.90;;;;;;5019749;28;20750;-80
2023/02/26 03:03:23;;;;;;;0.10;0.10;;;0.20;99.90;;;;;;5020792;28;20270;-80
2023/02/26 03:05:49;;;;;;;0.10;0.10;;;0.20;99.90;;;;;;5022231;28;20604;-80
2023/02/26 03:08:19;;;;;;;0.10;0.10;;;0.10;99.90;;;;;;5019816;28;20178;-80
2023/02/26 03:10:45;;;;;;;0.10;0.10;;;0.10;99.90;;;;;;5020103;28;20178;-80
2023/02/26 03:13:23;;;;;;;0.10;0.10;;;0.00;99.90;;;;;;5016071;28;20280;-80
2023/02/26 03:15:49;;;;;;;0.10;0.10;;;0.00;99.90;;;;;;5023034;28;20272;-80
2023/02/26 03:18:27;;;;;;;0.10;0.10;;;0.00;99.90;;;;;;5017170;28;20265;-80
2023/02/26 03:21:03;;;;;;;0.10;0.10;;;0.00;99.90;;;;;;5014473;28;20730;-80
2023/02/26 03:23:44;;;;;;;0.10;0.10;;;-0.10;99.90;;;;;;5021864;28;20185;-80
2023/02/26 03:26:17;;;;;;;0.10;0.10;;;-0.10;99.90;;;;;;5017701;28;20189;-80
2023/02/26 03:29:03;;;;;;;0.17;0.17;;;-0.10;99.90;;;;;;5023629;28;20253;-80
2023/02/26 03:31:52;;;;;;;0.10;0.10;;;-0.10;99.90;;;;;;5021962;28;20179;-80
2023/02/26 03:34:49;;;;;;;0.10;0.10;;;-0.20;99.90;;;;;;5020548;28;20939;-80
2023/02/26 03:37:29;;;;;;;0.10;0.10;;;-0.20;99.90;;;;;;5022561;28;20179;-80
2023/02/26 03:39:59;;;;;;;0.10;0.10;;;-0.20;99.90;;;;;;5020740;28;20703;-80
2023/02/26 03:42:31;;;;;;;0.10;0.10;;;-0.30;99.90;;;;;;5021525;28;20182;-80
2023/02/26 03:45:01;;;;;;;0.03;0.03;;;-0.30;99.90;;;;;;5021853;28;20229;-78
2023/02/26 03:47:29;;;;;;;0.10;0.10;;;-0.30;99.90;;;;;;5020558;28;20187;-80
2023/02/26 03:50:02;;;;;;;0.10;0.10;;;-0.30;99.90;;;;;;5020151;28;20607;-80
2023/02/26 03:52:31;;;;;;;0.10;0.10;;;-0.30;99.90;;;;;;5020742;28;20199;-80
2023/02/26 03:55:01;;;;;;;0.10;0.10;;;-0.30;99.90;;;;;;5014406;28;20207;-80
2023/02/26 03:57:27;;;;;;;0.10;0.10;;;-0.30;99.90;;;;;;5020537;28;20282;-81
2023/02/26 03:59:53;;;;;;;0.10;0.10;;;-0.30;99.90;;;;;;5023114;28;20286;-80
2023/02/26 04:02:28;;;;;;;0.10;0.10;;;-0.30;99.90;;;;;;5019437;28;20547;-80
2023/02/26 04:04:59;;;;;;;0.10;0.10;;;-0.40;99.90;;;;;;5021404;28;20198;-79
2023/02/26 04:07:25;;;;;;;0.10;0.10;;;-0.40;99.90;;;;;;5016270;28;20268;-80
2023/02/26 04:09:51;;;;;;;0.03;0.03;;;-0.40;99.90;;;;;;5020607;28;20178;-80
2023/02/26 04:12:26;;;;;;;0.10;0.10;;;-0.40;99.90;;;;;;5013363;28;20554;-80
2023/02/26 04:14:51;;;;;;;0.10;0.10;;;-0.40;99.90;;;;;;5020762;28;21321;-79
2023/02/26 04:17:17;;;;;;;0.10;0.10;;;-0.50;99.90;;;;;;5022287;28;20320;-80
2023/02/26 04:19:43;;;;;;;0.10;0.10;;;-0.50;99.90;;;;;;5021286;28;20571;-81
2023/02/26 04:22:09;;;;;;;0.10;0.10;;;-0.50;99.90;;;;;;5016205;28;20675;-79
2023/02/26 04:24:34;;;;;;;0.07;0.07;;;-0.50;99.90;;;;;;5020528;28;20784;-80
2023/02/26 04:27:00;;;;;;;0.10;0.10;;;-0.40;99.90;;;;;;5019309;28;20189;-80
2023/02/26 04:29:26;;;;;;;0.10;0.10;;;-0.50;99.90;;;;;;5023798;28;20186;-80
2023/02/26 04:31:52;;;;;;;0.00;0.00;;;-0.40;99.90;;;;;;5023839;28;20191;-80
2023/02/26 04:34:18;;;;;;;0.10;0.10;;;-0.40;99.90;;;;;;5026264;28;20220;-79
2023/02/26 04:36:43;;;;;;;0.10;0.10;;;-0.40;99.90;;;;;;5022414;28;20578;-79
2023/02/26 04:39:09;;;;;;;0.10;0.10;;;-0.50;99.90;;;;;;5023228;28;20194;-80
2023/02/26 04:41:35;;;;;;;0.10;0.10;;;-0.50;99.90;;;;;;5023847;28;20185;-80
2023/02/26 04:44:02;;;;;;;0.10;0.10;;;-0.50;99.90;;;;;;5023603;28;20726;-80
2023/02/26 04:46:28;;;;;;;0.10;0.10;;;-0.40;99.90;;;;;;5024630;28;20183;-81
2023/02/26 04:48:54;;;;;;;0.10;0.10;;;-0.50;99.90;;;;;;5018895;28;20196;-80
2023/02/26 04:51:19;;;;;;;0.10;0.10;;;-0.40;99.90;;;;;;5024759;28;20202;-80
2023/02/26 04:53:45;;;;;;;0.10;0.10;;;-0.40;99.90;;;;;;5024507;28;20655;-79
2023/02/26 04:56:11;;;;;;;0.10;0.10;;;-0.50;99.90;;;;;;5023794;28;20189;-80
2023/02/26 04:58:36;;;;;;;0.10;0.10;;;-0.40;99.90;;;;;;5020973;28;20782;-80
2023/02/26 05:01:02;;;;;;;0.00;0.00;;;-0.40;99.90;;;;;;5025334;28;20226;-80
2023/02/26 05:03:28;;;;;;;0.10;0.10;;;-0.50;99.90;;;;;;5021459;28;20189;-80
2023/02/26 05:05:54;;;;;;;0.10;0.10;;;-0.50;99.90;;;;;;5024844;28;20175;-80
2023/02/26 05:08:19;;;;;;;0.10;0.10;;;-0.50;99.90;;;;;;5023896;28;20201;-80
2023/02/26 05:10:46;;;;;;;0.10;0.10;;;-0.50;99.90;;;;;;5024045;28;20550;-80
2023/02/26 05:13:11;;;;;;;0.10;0.10;;;-0.50;99.90;;;;;;5022657;28;20188;-81
2023/02/26 05:15:37;;;;;;;0.10;0.10;;;-0.50;99.90;;;;;;5018587;28;20210;-80
2023/02/26 05:18:02;;;;;;;0.10;0.10;;;-0.60;99.90;;;;;;5020613;28;20186;-80
2023/02/26 05:20:28;;;;;;;1.23;1.23;;;-0.60;99.90;;;;;;5020595;28;20290;-80
2023/02/26 05:22:53;;;;;;;0.10;0.10;;;-0.50;99.90;;;;;;5019848;28;20178;-80
2023/02/26 05:25:19;;;;;;;0.10;0.10;;;-0.60;99.90;;;;;;5023508;28;20287;-80
2023/02/26 05:27:45;;;;;;;0.10;0.10;;;-0.60;99.90;;;;;;5021572;28;20178;-80
2023/02/26 05:30:13;;;;;;;0.10;0.10;;;-0.60;99.90;;;;;;5022751;28;20329;-80
2023/02/26 05:32:39;;;;;;;0.10;0.10;;;-0.60;99.90;;;;;;5025492;28;20205;-79
2023/02/26 05:35:05;;;;;;;0.10;0.10;;;-0.60;99.90;;;;;;5019016;28;21100;-80
2023/02/26 05:37:30;;;;;;;0.10;0.10;;;-0.60;99.90;;;;;;5021804;28;20186;-81
2023/02/26 05:39:56;;;;;;;0.10;0.10;;;-0.60;99.90;;;;;;5025135;28;20292;-81
2023/02/26 05:42:21;;;;;;;0.10;0.10;;;-0.60;99.90;;;;;;5021065;28;20193;-80
2023/02/26 05:44:47;;;;;;;0.10;0.10;;;-0.50;99.90;;;;;;5020516;28;20688;-80
2023/02/26 05:47:12;;;;;;;0.10;0.10;;;-0.60;99.90;;;;;;5022673;28;20184;-80
2023/02/26 05:49:38;;;;;;;0.03;0.03;;;-0.60;99.90;;;;;;5023301;28;20428;-80
2023/02/26 05:52:04;;;;;;;0.60;0.60;;;-0.60;99.90;;;;;;5019617;28;20748;-80
2023/02/26 05:54:29;;;;;;;0.10;0.10;;;-0.60;99.90;;;;;;5023583;28;21228;-80
2023/02/26 05:56:55;;;;;;;0.10;0.10;;;-0.60;99.90;;;;;;5024019;28;20214;-80
2023/02/26 05:59:21;;;;;;;0.10;0.10;;;-0.50;99.90;;;;;;5019452;28;20264;-80
2023/02/26 06:01:46;;;;;;;0.10;0.10;;;-0.60;99.90;;;;;;5017813;28;20190;-81
2023/02/26 06:04:12;;;;;;;0.10;0.10;;;-0.60;99.90;;;;;;5022445;28;20190;-81
2023/02/26 06:06:37;;;;;;;0.10;0.10;;;-0.60;99.90;;;;;;5024422;28;20232;-81
2023/02/26 06:09:07;;;;;;;0.10;0.10;;;-0.60;99.90;;;;;;5019955;28;20194;-81
2023/02/26 06:11:32;;;;;;;0.10;0.10;;;-0.60;99.90;;;;;;5017975;28;21303;-80
2023/02/26 06:13:58;;;;;;;0.10;0.10;;;-0.60;99.90;;;;;;5018165;28;20211;-80
2023/02/26 06:16:23;;;;;;;0.10;0.10;;;-0.50;99.90;;;;;;5017383;28;20220;-81
2023/02/26 06:18:49;;;;;;;0.10;0.10;;;-0.50;99.90;;;;;;5020776;28;20228;-79
2023/02/26 06:21:15;;;;;;;0.10;0.10;;;-0.60;99.90;;;;;;5021134;28;20291;-79
2023/02/26 06:23:41;;;;;;;0.20;0.20;;;-0.60;99.90;;;;;;5023715;28;20190;-80
2023/02/26 06:26:07;;;;;;;0.10;0.10;;;-0.50;99.90;;;;;;5020386;28;20186;-80
2023/02/26 06:28:32;;;;;;;0.10;0.10;;;-0.50;99.90;;;;;;5020490;28;20218;-77
2023/02/26 06:30:58;;;;;;;0.10;0.10;;;-0.50;99.90;;;;;;5022036;28;20186;-78
2023/02/26 06:33:24;;;;;;;0.10;0.10;;;-0.50;99.90;;;;;;5023642;28;20248;-79
2023/02/26 06:35:50;;;;;;;0.10;0.10;;;-0.40;99.90;;;;;;5021763;28;20194;-79
2023/02/26 06:38:16;;;;;;;0.10;0.10;;;-0.30;99.90;;;;;;5020184;28;20194;-79
2023/02/26 06:40:42;;;;;;;0.10;0.10;;;-0.30;99.90;;;;;;5022109;28;20683;-80
2023/02/26 06:43:07;;;;;;;0.10;0.10;;;-0.30;99.90;;;;;;5021709;28;20179;-80
2023/02/26 06:45:33;;;;;;;0.10;0.10;;;-0.30;99.90;;;;;;5017599;28;20210;-81
2023/02/26 06:47:59;;;;;;;0.77;0.73;;;-0.20;99.90;;;;;;5022921;28;20206;-80
2023/02/26 06:50:24;;;;;;;0.47;0.47;;;-0.20;99.90;;;;;;5019240;28;20204;-81
2023/02/26 06:52:50;;;;;;;0.10;0.10;;;-0.10;99.90;;;;;;5021695;28;20190;-81
2023/02/26 06:55:15;;;;;;;0.10;0.10;;;0.00;99.90;;;;;;5025053;28;20210;-80
2023/02/26 06:57:41;;;;;;;0.10;0.10;;;0.00;99.90;;;;;;5022304;28;20193;-80
2023/02/26 07:00:08;;;;;;;0.10;0.10;;;0.00;99.90;;;;;;5020978;28;20301;-79
2023/02/26 07:02:34;;;;;;;0.10;0.10;;;0.10;99.90;;;;;;5017369;28;20201;-80
2023/02/26 07:04:59;;;;;;;0.10;0.10;;;0.10;99.90;;;;;;5017898;28;20210;-81
2023/02/26 07:07:25;;;;;;;0.10;0.10;;;0.20;99.90;;;;;;5036794;28;20202;-81
2023/02/26 07:09:50;;;;;;;0.10;0.10;;;0.30;99.90;;;;;;5018162;28;20186;-80
2023/02/26 07:12:16;;;;;;;0.10;0.10;;;0.30;99.90;;;;;;5019516;28;21128;-79
2023/02/26 07:14:42;;;;;;;0.10;0.10;;;0.30;99.90;;;;;;5019458;28;20223;-81
2023/02/26 07:17:08;;;;;;;0.10;0.10;;;0.40;99.90;;;;;;5019574;28;20190;-81
2023/02/26 07:19:33;;;;;;;0.10;0.10;;;0.40;99.90;;;;;;5017734;28;20552;-81
2023/02/26 07:21:59;;;;;;;0.10;0.10;;;0.40;99.90;;;;;;5018972;28;20268;-81
2023/02/26 07:24:24;;;;;;;0.10;0.10;;;0.40;99.90;;;;;;5021585;28;20294;-81
2023/02/26 07:26:50;;;;;;;0.10;0.10;;;0.40;99.90;;;;;;5020071;28;20182;-81
2023/02/26 07:29:16;;;;;;;0.10;0.10;;;0.50;99.90;;;;;;5019782;28;20248;-80
2023/02/26 07:31:41;;;;;;;0.10;0.10;;;0.60;99.90;;;;;;5020124;28;20261;-81
2023/02/26 07:34:07;;;;;;;0.10;0.10;;;0.60;99.90;;;;;;5022562;28;20673;-81
2023/02/26 07:36:32;;;;;;;0.10;0.10;;;0.80;99.90;;;;;;5021044;28;20185;-82
2023/02/26 07:38:58;;;;;;;0.10;0.10;;;0.80;99.90;;;;;;5016975;28;20179;-81
2023/02/26 07:41:23;;;;;;;0.10;0.10;;;0.90;99.90;;;;;;5019011;28;20223;-81
2023/02/26 07:43:49;;;;;;;0.00;0.00;;;0.80;99.90;;;;;;5023702;28;20203;-80
2023/02/26 07:46:15;;;;;;;0.10;0.10;;;0.90;99.90;;;;;;5023187;28;20194;-81
2023/02/26 07:48:40;;;;;;;0.10;0.10;;;1.00;99.90;;;;;;5017749;28;20182;-81
2023/02/26 07:51:06;;;;;;;0.10;0.10;;;1.00;99.90;;;;;;5023570;28;20193;-81
2023/02/26 07:53:32;;;;;;;0.10;0.10;;;1.10;99.90;;;;;;5019323;28;20174;-81
2023/02/26 07:55:58;;;;;;;0.10;0.10;;;1.20;99.90;;;;;;5020253;28;20692;-80
2023/02/26 07:58:24;;;;;;;0.10;0.10;;;1.30;99.90;;;;;;5026530;28;20210;-81
2023/02/26 08:00:51;;;;;;;0.10;0.10;;;1.20;99.90;;;;;;5024004;28;20241;-80
2023/02/26 08:03:17;;;;;;;0.10;0.10;;;1.10;99.90;;;;;;5022420;28;20187;-82
2023/02/26 08:05:43;;;;;;;0.10;0.10;;;1.10;99.90;;;;;;5025679;28;20197;-83
2023/02/26 08:08:09;;;;;;;0.10;0.10;;;1.10;99.90;;;;;;5020212;28;20181;-82
2023/02/26 08:10:34;;;;;;;0.10;0.10;;;1.00;99.90;;;;;;5023364;28;20193;-81
2023/02/26 08:13:00;;;;;;;0.10;0.10;;;0.80;99.90;;;;;;5016911;28;20229;-82
2023/02/26 08:15:25;;;;;;;0.10;0.10;;;0.90;99.90;;;;;;5019499;28;20316;-81
2023/02/26 08:17:52;;;;;;;0.10;0.10;;;0.90;99.90;;;;;;5026724;28;20266;-82
2023/02/26 08:20:18;;;;;;;0.10;0.10;;;0.80;99.90;;;;;;5021555;28;20206;-80
2023/02/26 08:22:43;;;;;;;0.10;0.10;;;0.90;99.90;;;;;;5027336;28;21365;-81
2023/02/26 08:25:09;;;;;;;0.10;0.10;;;0.80;99.90;;;;;;5026278;28;20206;-82
2023/02/26 08:27:35;;;;;;;0.10;0.10;;;0.80;99.90;;;;;;5027020;28;20554;-81
2023/02/26 08:30:01;;;;;;;0.10;0.10;;;0.80;99.90;;;;;;5021356;28;20189;-82
2023/02/26 08:32:27;;;;;;;0.10;0.10;;;0.70;99.90;;;;;;5025722;28;20190;-81
2023/02/26 08:34:52;;;;;;;0.10;0.10;;;0.80;99.90;;;;;;5043797;28;20287;-79
2023/02/26 08:37:20;;;;;;;0.10;0.10;;;0.80;99.90;;;;;;5025859;28;20237;-82
2023/02/26 08:39:46;;;;;;;0.10;0.10;;;0.90;99.90;;;;;;5028231;28;20211;-81
2023/02/26 08:42:15;;;;;;;0.10;0.10;;;1.00;99.90;;;;;;5019113;28;20185;-82
2023/02/26 08:44:41;;;;;;;0.10;0.10;;;1.40;99.90;;;;;;5022891;28;20204;-82
2023/02/26 08:47:06;;;;;;;0.10;0.10;;;1.40;99.90;;;;;;5026346;28;20176;-82
2023/02/26 08:49:32;;;;;;;0.10;0.10;;;1.50;99.90;;;;;;5022374;28;20187;-82
2023/02/26 08:51:57;;;;;;;0.10;0.10;;;1.40;99.90;;;;;;5022422;28;20194;-82
2023/02/26 08:54:24;;;;;;;0.10;0.10;;;1.50;99.90;;;;;;5018092;28;20699;-81
2023/02/26 08:56:50;;;;;;;0.10;0.10;;;1.50;99.90;;;;;;5024519;28;20208;-82
2023/02/26 08:59:15;;;;;;;0.10;0.10;;;1.40;99.90;;;;;;5026834;28;21026;-80
2023/02/26 09:01:41;;;;;;;0.10;0.10;;;1.50;99.90;;;;;;5023622;28;20349;-86
2023/02/26 09:04:06;;;;;;;0.10;0.10;;;2.00;99.90;;;;;;5021666;28;20198;-82
2023/02/26 09:06:32;;;;;;;0.10;0.10;;;2.20;99.90;;;;;;5022457;28;20271;-81
2023/02/26 09:08:57;;;;;;;0.10;0.10;;;2.30;99.90;;;;;;5021377;28;20247;-82
2023/02/26 09:11:23;;;;;;;0.10;0.10;;;2.80;99.90;;;;;;5019560;28;20272;-81
2023/02/26 09:13:48;;;;;;;0.10;0.10;;;2.70;99.90;;;;;;5021327;28;20224;-82
2023/02/26 09:16:14;;;;;;;0.10;0.10;;;2.90;99.90;;;;;;5023404;28;20196;-80
2023/02/26 09:18:39;;;;;;;0.10;0.10;;;3.00;99.90;;;;;;5023734;28;20201;-80
2023/02/26 09:21:05;;;;;;;0.10;0.10;;;3.10;99.90;;;;;;5019423;28;20205;-80
2023/02/26 09:23:30;;;;;;;0.10;0.10;;;2.70;99.90;;;;;;5021811;28;20657;-79
2023/02/26 09:25:56;;;;;;;0.10;0.10;;;2.60;99.90;;;;;;5025471;28;20653;-80
2023/02/26 09:28:23;;;;;;;0.10;0.10;;;2.80;99.90;;;;;;5018489;28;20185;-80
2023/02/26 09:30:55;;;;;;;0.07;0.07;;;2.60;99.90;;;;;;5020688;28;20181;-80
2023/02/26 09:33:21;;;;;;;0.10;0.10;;;2.50;99.90;;;;;;5023073;28;20270;-81
2023/02/26 09:35:49;;;;;;;0.10;0.10;;;2.80;99.90;;;;;;5023679;28;20210;-80
2023/02/26 09:38:14;;;;;;;0.10;0.10;;;3.10;99.90;;;;;;5024073;28;20199;-80
2023/02/26 09:40:52;;;;;;;0.10;0.10;;;3.10;99.90;;;;;;5021853;28;20209;-80
2023/02/26 09:43:29;;;;;;;0.10;0.10;;;3.30;99.90;;;;;;5024549;28;20552;-81
2023/02/26 09:45:59;;;;;;;0.10;0.10;;;3.40;99.90;;;;;;5018180;28;20687;-81
2023/02/26 09:48:27;;;;;;;0.10;0.10;;;3.30;99.90;;;;;;5023767;28;20212;-81
2023/02/26 09:50:56;;;;;;;0.10;0.10;;;3.10;99.90;;;;;;5018342;28;20201;-81
2023/02/26 09:53:30;;;;;;;0.10;0.10;;;3.10;99.90;;;;;;5018991;28;20208;-80
2023/02/26 09:56:20;;;;;;;0.10;0.10;;;2.80;99.90;;;;;;5021598;28;20197;-81
2023/02/26 09:58:46;;;;;;;0.00;0.00;;;2.70;99.90;;;;;;5022701;28;20292;-81
2023/02/26 10:01:31;;;;;;;0.87;0.87;;;2.80;99.90;;;;;;5022962;28;20241;-81
2023/02/26 10:04:41;;;;;;;0.10;0.10;;;2.70;99.90;;;;;;5025980;28;20215;-81
2023/02/26 10:07:39;;;;;;;0.10;0.10;;;2.50;99.90;;;;;;5020113;28;20190;-81
2023/02/26 10:10:32;;;;;;;0.10;0.10;;;2.60;99.90;;;;;;5025911;28;20537;-81
2023/02/26 10:12:59;;;;;;;0.10;0.10;;;2.90;99.90;;;;;;5018302;28;20235;-81
2023/02/26 10:15:41;;;;;;;0.10;0.10;;;2.80;99.90;;;;;;5022586;28;20209;-81
2023/02/26 10:18:21;;;;;;;0.10;0.10;;;3.00;99.90;;;;;;5018016;28;20253;-81
2023/02/26 10:20:52;;;;;;;0.73;0.73;;;3.10;99.90;;;;;;5023343;28;20287;-80
2023/02/26 10:23:33;;;;;;;0.10;0.10;;;3.40;99.90;;;;;;5024362;28;20185;-81
2023/02/26 10:26:10;;;;;;;0.03;0.03;;;3.50;99.90;;;;;;5024861;28;20174;-81
2023/02/26 10:28:50;;;;;;;0.10;0.10;;;3.80;99.90;;;;;;5023904;28;20183;-81
2023/02/26 10:31:16;;;;;;;0.10;0.10;;;4.10;99.90;;;;;;5023278;28;20192;-81
2023/02/26 10:33:56;;;;;;;0.10;0.10;;;4.30;99.90;;;;;;5021997;28;20188;-81
2023/02/26 10:36:27;;;;;;;0.10;0.10;;;4.60;99.90;;;;;;5018439;28;20234;-81
2023/02/26 10:39:23;;;;;;;0.10;0.10;;;4.20;99.90;;;;;;5022633;28;20671;-80
2023/02/26 10:41:50;;;;;;;0.10;0.10;;;4.30;99.90;;;;;;5022504;28;20301;-81
2023/02/26 10:44:29;;;;;;;0.10;0.10;;;4.30;99.90;;;;;;5021257;28;20201;-81
2023/02/26 10:47:22;;;;;;;0.10;0.10;;;4.50;99.90;;;;;;5021314;28;20185;-81
2023/02/26 10:49:59;;;;;;;0.10;0.10;;;4.80;99.90;;;;;;5020759;28;20182;-81
2023/02/26 10:52:27;;;;;;;0.10;0.10;;;4.50;99.90;;;;;;5022178;28;20213;-79
2023/02/26 10:55:21;;;;;;;0.00;0.00;;;4.80;99.90;;;;;;5023130;28;20264;-80
2023/02/26 10:58:04;;;;;;;0.10;0.10;;;4.80;99.90;;;;;;5022613;28;20607;-78
2023/02/26 11:00:30;;;;;;;0.00;0.00;;;5.20;99.90;;;;;;5023657;28;20217;-81
2023/02/26 11:02:57;;;;;;;0.00;0.00;;;5.20;99.90;;;;;;5019137;28;20178;-81
2023/02/26 11:05:26;;;;;;;0.10;0.10;;;5.40;99.90;;;;;;5022769;28;20213;-80
2023/02/26 11:07:56;;;;;;;0.10;0.10;;;5.30;99.90;;;;;;5039506;28;20198;-80
2023/02/26 11:10:26;;;;;;;0.67;0.67;;;5.20;99.90;;;;;;5020570;28;20186;-80
2023/02/26 11:12:52;;;;;;;0.10;0.10;;;5.10;99.90;;;;;;5021636;28;20183;-80
2023/02/26 11:15:21;;;;;;;0.10;0.10;;;4.70;99.90;;;;;;5019428;28;20214;-80
2023/02/26 11:17:51;;;;;;;0.10;0.10;;;5.00;99.90;;;;;;5017357;28;20552;-80
2023/02/26 11:20:29;;;;;;;0.10;0.10;;;4.90;99.90;;;;;;5019755;28;20206;-79
2023/02/26 11:22:58;;;;;;;0.10;0.10;;;3.80;99.90;;;;;;5018722;28;20250;-81
2023/02/26 11:25:27;;;;;;;0.10;0.10;;;3.70;99.90;;;;;;5017731;28;20202;-80
2023/02/26 11:27:59;;;;;;;0.10;0.10;;;3.60;99.90;;;;;;5020367;28;20196;-80
2023/02/26 11:30:28;;;;;;;0.03;0.03;;;3.80;99.90;;;;;;5039065;28;20190;-80
2023/02/26 11:32:57;;;;;;;0.10;0.10;;;3.40;99.90;;;;;;5017027;28;20189;-79
2023/02/26 11:35:25;;;;;;;0.10;0.10;;;3.90;99.90;;;;;;5022986;28;20271;-79
2023/02/26 11:37:58;;;;;;;0.10;0.10;;;4.00;99.90;;;;;;5023438;28;20182;-80
2023/02/26 11:40:27;;;;;;;0.00;0.00;;;4.10;99.90;;;;;;5021375;28;20202;-80
2023/02/26 11:42:57;;;;;;;0.10;0.10;;;4.10;99.90;;;;;;5022763;28;20185;-79
2023/02/26 11:45:23;;;;;;;0.00;0.00;;;4.00;99.90;;;;;;5016578;28;20213;-80
2023/02/26 11:47:57;;;;;;;0.10;0.10;;;3.90;99.90;;;;;;5022680;28;20179;-80
2023/02/26 11:50:24;;;;;;;0.10;0.10;;;4.20;99.90;;;;;;5015480;28;20186;-80
2023/02/26 11:53:18;;;;;;;0.10;0.10;;;4.10;99.90;;;;;;5016925;28;20273;-79
2023/02/26 11:55:49;;;;;;;0.10;0.10;;;4.90;99.90;;;;;;5017977;28;20876;-81
2023/02/26 11:58:22;;;;;;;0.10;0.10;;;4.70;99.90;;;;;;5022701;28;20235;-79
2023/02/26 12:00:50;;;;;;;0.10;0.10;;;4.90;99.90;;;;;;5024376;28;20259;-81
2023/02/26 12:03:21;;;;;;;0.10;0.10;;;5.10;99.90;;;;;;5021404;28;20182;-81
2023/02/26 12:05:48;;;;;;;0.10;0.10;;;5.20;99.90;;;;;;5021949;28;20202;-80
2023/02/26 12:08:24;;;;;;;0.10;0.10;;;5.20;99.90;;;;;;5018770;28;20174;-81
2023/02/26 12:11:38;;;;;;;0.07;0.07;;;4.90;99.90;;;;;;5024425;28;20178;-81
2023/02/26 12:14:34;;;;;;;0.10;0.10;;;4.90;99.90;;;;;;4991116;28;20215;-80
2023/02/26 12:17:45;;;;;;;0.10;0.10;;;4.70;99.90;;;;;;5022163;28;20332;-80
2023/02/26 12:20:25;;;;;;;0.10;0.10;;;4.30;99.90;;;;;;4985325;28;20286;-80
2023/02/26 12:23:20;;;;;;;0.20;0.20;;;5.10;99.90;;;;;;5034686;28;20601;-81
2023/02/26 12:25:49;;;;;;;0.10;0.10;;;5.00;99.90;;;;;;5025614;28;20198;-80
2023/02/26 12:28:33;;;;;;;0.10;0.10;;;4.50;99.90;;;;;;5025509;28;20561;-80
2023/02/26 12:31:14;;;;;;;0.07;0.07;;;4.60;99.90;;;;;;5026856;28;20246;-80
2023/02/26 12:34:05;;;;;;;0.10;0.10;;;4.50;99.90;;;;;;5027648;28;20182;-80
2023/02/26 12:37:04;;;;;;;0.10;0.10;;;4.50;99.90;;;;;;5025557;28;20636;-80
2023/02/26 12:40:10;;;;;;;0.10;0.10;;;4.10;99.90;;;;;;5024395;28;20187;-80
2023/02/26 12:43:07;;;;;;;0.10;0.10;;;4.20;99.90;;;;;;5000125;28;20249;-80
2023/02/26 12:45:52;;;;;;;0.00;0.00;;;4.10;99.90;;;;;;5004204;28;20207;-80
2023/02/26 12:48:35;;;;;;;0.10;0.10;;;3.90;99.90;;;;;;5019880;28;20190;-80
2023/02/26 12:51:18;;;;;;;0.03;0.03;;;4.00;99.90;;;;;;5043379;28;20229;-80
2023/02/26 12:54:02;;;;;;;0.10;0.10;;;4.10;99.90;;;;;;5026065;28;20214;-80
2023/02/26 12:57:04;;;;;;;0.10;0.10;;;4.00;99.90;;;;;;5017679;28;20195;-80
2023/02/26 13:00:03;;;;;;;0.10;0.10;;;4.00;99.90;;;;;;5024060;28;20232;-81
2023/02/26 13:03:07;;;;;;;0.10;0.10;;;4.20;99.90;;;;;;5026365;28;20707;-80
2023/02/26 13:06:11;;;;;;;0.10;0.10;;;4.30;99.90;;;;;;5024832;28;20427;-81
2023/02/26 13:08:45;;;;;;;0.10;0.10;;;4.60;99.90;;;;;;5021514;28;20301;-81
2023/02/26 13:11:19;;;;;;;0.00;0.00;;;4.20;99.90;;;;;;5020157;28;20178;-81
2023/02/26 13:14:28;;;;;;;0.10;0.10;;;4.20;99.90;;;;;;5023019;28;20840;-81
2023/02/26 13:17:09;;;;;;;0.10;0.10;;;3.90;99.90;;;;;;5005650;28;20202;-81
2023/02/26 13:19:51;;;;;;;0.10;0.10;;;3.60;99.90;;;;;;5023010;28;20224;-81